sensor_id;sensor_type;location;lat;lon;timestamp;pressure;altitude;pressure_sealevel;temperature;humidity
58769;BME280;44536;47.474;19.056;2023-03-26T00:01:20;99998.72;;;7.97;71.09
58769;BME280;44536;47.474;19.056;2023-03-26T00:04:23;99993.44;;;7.97;71.14
58769;BME280;44536;47.474;19.056;2023-03-26T00:07:26;99990.72;;;7.86;71.84
58769;BME280;44536;47.474;19.056;2023-03-26T00:10:29;99981.13;;;7.85;71.41
58769;BME280;44536;47.474;19.056;2023-03-26T00:13:31;99991.19;;;7.80;71.51
58769;BME280;44536;47.474;19.056;2023-03-26T00:16:34;99989.41;;;7.68;72.20
58769;BME280;44536;47.474;19.056;2023-03-26T00:19:37;99988.88;;;7.62;72.64
58769;BME280;44536;47.474;19.056;2023-03-26T00:22:40;99988.66;;;7.66;72.37
58769;BME280;44536;47.474;19.056;2023-03-26T00:25:42;99988.44;;;7.69;71.92
58769;BME280;44536;47.474;19.056;2023-03-26T00:28:47;99999.63;;;7.72;71.61
58769;BME280;44536;47.474;19.056;2023-03-26T00:31:52;99997.41;;;7.79;71.16
58769;BME280;44536;47.474;19.056;2023-03-26T00:34:55;99994.47;;;7.71;71.90
58769;BME280;44536;47.474;19.056;2023-03-26T00:37:57;99984.13;;;7.55;72.40
58769;BME280;44536;47.474;19.056;2023-03-26T00:41:01;99984.88;;;7.57;72.24
58769;BME280;44536;47.474;19.056;2023-03-26T00:44:07;99979.06;;;7.39;73.06
58769;BME280;44536;47.474;19.056;2023-03-26T00:47:10;99979.06;;;7.39;73.97
58769;BME280;44536;47.474;19.056;2023-03-26T00:50:12;99969.03;;;7.44;73.55
58769;BME280;44536;47.474;19.056;2023-03-26T00:53:17;99970.41;;;7.50;72.66
58769;BME280;44536;47.474;19.056;2023-03-26T00:56:21;99969.66;;;7.35;73.26
58769;BME280;44536;47.474;19.056;2023-03-26T00:59:23;99957.66;;;7.44;73.01
58769;BME280;44536;47.474;19.056;2023-03-26T01:02:25;99951.62;;;7.29;74.16
58769;BME280;44536;47.474;19.056;2023-03-26T01:11:37;99948.88;;;7.43;73.56
58769;BME280;44536;47.474;19.056;2023-03-26T01:14:39;99946.69;;;7.24;74.04
58769;BME280;44536;47.474;19.056;2023-03-26T01:17:42;99941.81;;;7.31;74.01
58769;BME280;44536;47.474;19.056;2023-03-26T01:20:45;99947.41;;;7.39;73.06
58769;BME280;44536;47.474;19.056;2023-03-26T01:23:56;99956.41;;;7.24;73.79
58769;BME280;44536;47.474;19.056;2023-03-26T01:27:13;99948.28;;;7.27;74.50
58769;BME280;44536;47.474;19.056;2023-03-26T01:33:59;99950.88;;;7.40;73.12
58769;BME280;44536;47.474;19.056;2023-03-26T01:47:18;99964.19;;;7.63;71.05
58769;BME280;44536;47.474;19.056;2023-03-26T01:50:22;99961.94;;;7.70;70.44
58769;BME280;44536;47.474;19.056;2023-03-26T01:53:24;99961.22;;;7.68;70.50
58769;BME280;44536;47.474;19.056;2023-03-26T01:56:46;99956.94;;;7.91;69.29
58769;BME280;44536;47.474;19.056;2023-03-26T02:03:07;99951.12;;;7.86;69.41
58769;BME280;44536;47.474;19.056;2023-03-26T02:06:28;99962.16;;;7.80;69.82
58769;BME280;44536;47.474;19.056;2023-03-26T02:09:38;99965.44;;;7.71;69.77
58769;BME280;44536;47.474;19.056;2023-03-26T02:12:44;99973.13;;;7.74;70.26
58769;BME280;44536;47.474;19.056;2023-03-26T02:15:53;99969.03;;;7.70;70.26
58769;BME280;44536;47.474;19.056;2023-03-26T02:18:56;99970.63;;;7.59;70.90
58769;BME280;44536;47.474;19.056;2023-03-26T02:22:00;99974.53;;;7.54;71.35
58769;BME280;44536;47.474;19.056;2023-03-26T02:25:03;99973.91;;;7.50;71.56
58769;BME280;44536;47.474;19.056;2023-03-26T02:28:06;99967.25;;;7.45;71.82
58769;BME280;44536;47.474;19.056;2023-03-26T02:31:08;99971.88;;;7.41;71.99
58769;BME280;44536;47.474;19.056;2023-03-26T02:34:12;99975.06;;;7.34;72.42
58769;BME280;44536;47.474;19.056;2023-03-26T02:37:19;99972.94;;;7.39;72.01
58769;BME280;44536;47.474;19.056;2023-03-26T02:40:22;99970.97;;;7.17;73.20
58769;BME280;44536;47.474;19.056;2023-03-26T02:43:26;99961.97;;;7.07;73.55
58769;BME280;44536;47.474;19.056;2023-03-26T02:46:28;99960.31;;;7.18;73.37
58769;BME280;44536;47.474;19.056;2023-03-26T02:49:31;99954.59;;;7.12;73.96
58769;BME280;44536;47.474;19.056;2023-03-26T02:52:35;99953.31;;;7.05;73.83
58769;BME280;44536;47.474;19.056;2023-03-26T02:55:37;99951.34;;;7.08;73.65
58769;BME280;44536;47.474;19.056;2023-03-26T02:58:40;99947.53;;;7.00;74.47
58769;BME280;44536;47.474;19.056;2023-03-26T03:01:43;99943.81;;;6.89;74.45
58769;BME280;44536;47.474;19.056;2023-03-26T03:04:48;99949.41;;;6.85;74.64
58769;BME280;44536;47.474;19.056;2023-03-26T03:07:51;99957.50;;;6.69;75.99
58769;BME280;44536;47.474;19.056;2023-03-26T03:11:06;99960.75;;;6.60;75.95
58769;BME280;44536;47.474;19.056;2023-03-26T03:14:09;99951.03;;;6.60;76.29
58769;BME280;44536;47.474;19.056;2023-03-26T03:17:12;99955.03;;;6.53;76.97
58769;BME280;44536;47.474;19.056;2023-03-26T03:20:14;99949.13;;;6.50;76.36
58769;BME280;44536;47.474;19.056;2023-03-26T03:23:18;99948.91;;;6.53;76.53
58769;BME280;44536;47.474;19.056;2023-03-26T03:26:22;99958.94;;;6.60;76.68
58769;BME280;44536;47.474;19.056;2023-03-26T03:29:29;99960.53;;;6.63;76.41
58769;BME280;44536;47.474;19.056;2023-03-26T03:32:32;99960.44;;;6.64;76.16
58769;BME280;44536;47.474;19.056;2023-03-26T03:35:35;99966.22;;;6.57;76.69
58769;BME280;44536;47.474;19.056;2023-03-26T03:38:39;99956.19;;;6.49;77.01
58769;BME280;44536;47.474;19.056;2023-03-26T03:41:41;99948.31;;;6.35;77.46
58769;BME280;44536;47.474;19.056;2023-03-26T03:44:45;99956.53;;;6.30;77.80
58769;BME280;44536;47.474;19.056;2023-03-26T03:47:49;99952.75;;;6.35;76.98
58769;BME280;44536;47.474;19.056;2023-03-26T03:50:53;99970.13;;;6.37;77.79
58769;BME280;44536;47.474;19.056;2023-03-26T03:53:56;99972.72;;;6.51;76.80
58769;BME280;44536;47.474;19.056;2023-03-26T03:57:00;99969.53;;;6.46;76.95
58769;BME280;44536;47.474;19.056;2023-03-26T04:00:04;99974.50;;;6.51;76.56
58769;BME280;44536;47.474;19.056;2023-03-26T04:03:17;99979.38;;;6.30;77.73
58769;BME280;44536;47.474;19.056;2023-03-26T04:06:20;99976.09;;;6.26;78.66
58769;BME280;44536;47.474;19.056;2023-03-26T04:09:24;99986.00;;;6.23;78.18
58769;BME280;44536;47.474;19.056;2023-03-26T04:12:27;99989.88;;;6.17;78.53
58769;BME280;44536;47.474;19.056;2023-03-26T04:15:30;99990.62;;;6.19;78.84
58769;BME280;44536;47.474;19.056;2023-03-26T04:18:32;99982.25;;;6.13;78.67
58769;BME280;44536;47.474;19.056;2023-03-26T04:21:35;99984.47;;;5.92;79.35
58769;BME280;44536;47.474;19.056;2023-03-26T04:24:39;99987.06;;;5.78;81.36
58769;BME280;44536;47.474;19.056;2023-03-26T04:27:44;99978.09;;;5.68;81.69
58769;BME280;44536;47.474;19.056;2023-03-26T04:30:47;99976.47;;;5.51;81.98
58769;BME280;44536;47.474;19.056;2023-03-26T04:33:53;99973.28;;;5.46;82.95
58769;BME280;44536;47.474;19.056;2023-03-26T04:37:01;99973.66;;;5.40;82.75
58769;BME280;44536;47.474;19.056;2023-03-26T04:40:06;99976.19;;;5.41;83.30
58769;BME280;44536;47.474;19.056;2023-03-26T04:43:14;99974.69;;;5.37;82.67
58769;BME280;44536;47.474;19.056;2023-03-26T04:46:22;99979.84;;;5.39;83.30
58769;BME280;44536;47.474;19.056;2023-03-26T04:49:25;99984.94;;;5.42;83.80
58769;BME280;44536;47.474;19.056;2023-03-26T04:52:28;99985.41;;;5.48;83.58
58769;BME280;44536;47.474;19.056;2023-03-26T04:55:40;99981.47;;;5.70;83.06
58769;BME280;44536;47.474;19.056;2023-03-26T04:58:44;99985.47;;;5.75;80.68
58769;BME280;44536;47.474;19.056;2023-03-26T05:01:47;99993.63;;;5.85;79.96
58769;BME280;44536;47.474;19.056;2023-03-26T05:04:49;99995.16;;;6.03;81.09
58769;BME280;44536;47.474;19.056;2023-03-26T05:07:52;99988.63;;;6.23;80.33
58769;BME280;44536;47.474;19.056;2023-03-26T05:10:55;99977.63;;;6.43;79.39
58769;BME280;44536;47.474;19.056;2023-03-26T05:14:00;99969.00;;;6.81;77.75
58769;BME280;44536;47.474;19.056;2023-03-26T05:17:04;99977.28;;;7.27;77.56
58769;BME280;44536;47.474;19.056;2023-03-26T05:20:16;99971.78;;;7.55;75.48
58769;BME280;44536;47.474;19.056;2023-03-26T05:23:21;99975.72;;;8.36;70.96
58769;BME280;44536;47.474;19.056;2023-03-26T05:26:24;99974.69;;;9.08;67.85
58769;BME280;44536;47.474;19.056;2023-03-26T05:29:27;99972.28;;;9.16;65.19
58769;BME280;44536;47.474;19.056;2023-03-26T05:32:30;99973.16;;;9.39;64.93
58769;BME280;44536;47.474;19.056;2023-03-26T05:35:33;99978.25;;;8.96;64.46
58769;BME280;44536;47.474;19.056;2023-03-26T05:38:36;99970.75;;;8.79;66.39
58769;BME280;44536;47.474;19.056;2023-03-26T05:41:38;99974.09;;;10.05;62.10
58769;BME280;44536;47.474;19.056;2023-03-26T05:44:41;99969.19;;;11.59;55.48
58769;BME280;44536;47.474;19.056;2023-03-26T05:47:44;99971.25;;;11.55;54.41
58769;BME280;44536;47.474;19.056;2023-03-26T05:50:49;99981.34;;;11.82;53.80
58769;BME280;44536;47.474;19.056;2023-03-26T05:53:51;99971.41;;;13.31;49.34
58769;BME280;44536;47.474;19.056;2023-03-26T05:56:57;99975.81;;;14.51;46.47
58769;BME280;44536;47.474;19.056;2023-03-26T06:00:07;99972.72;;;16.03;42.50
58769;BME280;44536;47.474;19.056;2023-03-26T06:03:17;99971.37;;;14.95;43.78
58769;BME280;44536;47.474;19.056;2023-03-26T06:06:20;99973.31;;;14.40;45.95
58769;BME280;44536;47.474;19.056;2023-03-26T06:09:23;99965.84;;;18.42;38.06
58769;BME280;44536;47.474;19.056;2023-03-26T06:12:26;99964.34;;;18.94;36.28
58769;BME280;44536;47.474;19.056;2023-03-26T06:15:28;99963.44;;;19.01;35.84
58769;BME280;44536;47.474;19.056;2023-03-26T06:18:31;99965.94;;;20.86;32.82
58769;BME280;44536;47.474;19.056;2023-03-26T06:21:34;99959.72;;;21.97;30.42
58769;BME280;44536;47.474;19.056;2023-03-26T06:24:36;99956.09;;;22.92;28.51
58769;BME280;44536;47.474;19.056;2023-03-26T06:27:39;99953.56;;;25.54;25.15
58769;BME280;44536;47.474;19.056;2023-03-26T06:30:42;99956.63;;;27.09;23.73
58769;BME280;44536;47.474;19.056;2023-03-26T06:33:46;99958.53;;;28.53;21.82
58769;BME280;44536;47.474;19.056;2023-03-26T06:36:50;99951.72;;;26.46;23.29
58769;BME280;44536;47.474;19.056;2023-03-26T06:39:54;99956.59;;;25.46;24.79
58769;BME280;44536;47.474;19.056;2023-03-26T06:42:56;99953.97;;;25.07;25.30
58769;BME280;44536;47.474;19.056;2023-03-26T06:46:11;99961.47;;;27.07;22.25
58769;BME280;44536;47.474;19.056;2023-03-26T06:49:16;99957.69;;;25.38;23.95
58769;BME280;44536;47.474;19.056;2023-03-26T06:52:19;99955.31;;;25.91;23.96
58769;BME280;44536;47.474;19.056;2023-03-26T06:55:22;99953.94;;;25.14;24.48
58769;BME280;44536;47.474;19.056;2023-03-26T06:58:25;99962.47;;;24.48;24.73
58769;BME280;44536;47.474;19.056;2023-03-26T07:01:34;99956.34;;;24.66;25.34
58769;BME280;44536;47.474;19.056;2023-03-26T07:04:51;99961.97;;;24.64;24.62
58769;BME280;44536;47.474;19.056;2023-03-26T07:08:03;99952.16;;;23.67;25.91
58769;BME280;44536;47.474;19.056;2023-03-26T07:11:10;99959.69;;;24.30;25.15
58769;BME280;44536;47.474;19.056;2023-03-26T07:14:16;99949.16;;;25.10;24.43
58769;BME280;44536;47.474;19.056;2023-03-26T07:17:19;99959.28;;;25.70;23.61
58769;BME280;44536;47.474;19.056;2023-03-26T07:20:22;99952.28;;;22.54;28.01
58769;BME280;44536;47.474;19.056;2023-03-26T07:23:25;99956.37;;;22.30;28.48
58769;BME280;44536;47.474;19.056;2023-03-26T07:30:02;99958.38;;;18.30;34.27
58769;BME280;44536;47.474;19.056;2023-03-26T07:33:08;99960.53;;;16.75;38.13
58769;BME280;44536;47.474;19.056;2023-03-26T07:36:24;99969.78;;;15.54;41.25
58769;BME280;44536;47.474;19.056;2023-03-26T07:43:02;99968.91;;;13.29;47.40
58769;BME280;44536;47.474;19.056;2023-03-26T07:46:10;99974.62;;;13.44;48.85
58769;BME280;44536;47.474;19.056;2023-03-26T07:49:13;99982.97;;;13.58;49.00
58769;BME280;44536;47.474;19.056;2023-03-26T07:52:16;99972.41;;;13.67;47.84
58769;BME280;44536;47.474;19.056;2023-03-26T07:55:19;99980.72;;;14.01;48.14
58769;BME280;44536;47.474;19.056;2023-03-26T08:08:34;99981.22;;;15.20;42.77
58769;BME280;44536;47.474;19.056;2023-03-26T08:11:53;99975.25;;;15.44;42.24
58769;BME280;44536;47.474;19.056;2023-03-26T08:15:37;99973.53;;;15.17;43.26
58769;BME280;44536;47.474;19.056;2023-03-26T08:18:51;99966.56;;;14.63;44.90
58769;BME280;44536;47.474;19.056;2023-03-26T08:22:22;99962.13;;;15.33;43.97
58769;BME280;44536;47.474;19.056;2023-03-26T08:25:34;99963.91;;;15.50;43.59
58769;BME280;44536;47.474;19.056;2023-03-26T08:31:56;99958.53;;;15.42;43.26
58769;BME280;44536;47.474;19.056;2023-03-26T08:34:58;99969.16;;;15.60;42.49
58769;BME280;44536;47.474;19.056;2023-03-26T08:38:02;99960.56;;;15.74;42.28
58769;BME280;44536;47.474;19.056;2023-03-26T08:54:31;99946.72;;;15.79;42.62
58769;BME280;44536;47.474;19.056;2023-03-26T08:58:30;99943.53;;;15.75;42.62
58769;BME280;44536;47.474;19.056;2023-03-26T09:12:18;99936.69;;;16.31;40.05
58769;BME280;44536;47.474;19.056;2023-03-26T09:37:59;99911.53;;;17.62;36.23
58769;BME280;44536;47.474;19.056;2023-03-26T09:54:29;99890.00;;;17.31;35.98
58769;BME280;44536;47.474;19.056;2023-03-26T09:58:11;99878.72;;;17.99;35.31
58769;BME280;44536;47.474;19.056;2023-03-26T10:05:29;99866.91;;;19.14;33.59
58769;BME280;44536;47.474;19.056;2023-03-26T10:08:46;99858.66;;;18.41;33.66
58769;BME280;44536;47.474;19.056;2023-03-26T10:11:57;99850.84;;;17.69;34.54
58769;BME280;44536;47.474;19.056;2023-03-26T10:22:04;99852.09;;;15.64;39.58
58769;BME280;44536;47.474;19.056;2023-03-26T10:34:57;99895.69;;;12.96;55.37
58769;BME280;44536;47.474;19.056;2023-03-26T10:41:57;99884.81;;;10.60;73.15
58769;BME280;44536;47.474;19.056;2023-03-26T10:48:41;99859.03;;;11.53;88.20
58769;BME280;44536;47.474;19.056;2023-03-26T10:51:58;99842.25;;;12.51;72.62
58769;BME280;44536;47.474;19.056;2023-03-26T10:55:27;99826.13;;;12.72;74.05
58769;BME280;44536;47.474;19.056;2023-03-26T10:58:30;99826.84;;;13.93;70.18
58769;BME280;44536;47.474;19.056;2023-03-26T11:02:08;99815.75;;;14.51;60.35
58769;BME280;44536;47.474;19.056;2023-03-26T11:09:00;99799.22;;;13.94;61.42
58769;BME280;44536;47.474;19.056;2023-03-26T11:12:31;99787.69;;;13.76;68.86
58769;BME280;44536;47.474;19.056;2023-03-26T11:15:56;99792.19;;;13.93;62.70
58769;BME280;44536;47.474;19.056;2023-03-26T11:19:15;99778.84;;;13.57;58.71
58769;BME280;44536;47.474;19.056;2023-03-26T11:22:49;99776.25;;;13.20;65.30
58769;BME280;44536;47.474;19.056;2023-03-26T11:26:42;99763.63;;;13.68;65.00
58769;BME280;44536;47.474;19.056;2023-03-26T11:33:20;99746.12;;;14.96;57.75
58769;BME280;44536;47.474;19.056;2023-03-26T11:36:32;99752.78;;;14.66;58.90
58769;BME280;44536;47.474;19.056;2023-03-26T11:39:48;99745.47;;;14.42;59.72
58769;BME280;44536;47.474;19.056;2023-03-26T11:42:55;99738.53;;;14.83;57.70
58769;BME280;44536;47.474;19.056;2023-03-26T11:46:02;99712.97;;;17.02;50.29
58769;BME280;44536;47.474;19.056;2023-03-26T11:49:08;99720.16;;;18.69;48.69
58769;BME280;44536;47.474;19.056;2023-03-26T11:52:14;99716.81;;;21.23;40.83
58769;BME280;44536;47.474;19.056;2023-03-26T11:55:16;99707.28;;;22.21;38.79
58769;BME280;44536;47.474;19.056;2023-03-26T11:58:24;99707.03;;;23.33;34.42
58769;BME280;44536;47.474;19.056;2023-03-26T12:01:42;99688.34;;;24.45;32.94
58769;BME280;44536;47.474;19.056;2023-03-26T12:04:50;99681.47;;;25.40;30.54
58769;BME280;44536;47.474;19.056;2023-03-26T12:07:58;99667.06;;;23.35;33.17
58769;BME280;44536;47.474;19.056;2023-03-26T12:11:05;99652.94;;;21.43;35.49
58769;BME280;44536;47.474;19.056;2023-03-26T12:14:17;99663.56;;;18.04;42.14
58769;BME280;44536;47.474;19.056;2023-03-26T12:20:34;99646.47;;;19.08;40.43
58769;BME280;44536;47.474;19.056;2023-03-26T12:24:01;99637.22;;;18.81;39.71
58769;BME280;44536;47.474;19.056;2023-03-26T12:30:25;99622.88;;;18.74;40.84
58769;BME280;44536;47.474;19.056;2023-03-26T12:33:33;99617.38;;;19.33;40.34
58769;BME280;44536;47.474;19.056;2023-03-26T12:36:36;99614.78;;;19.03;43.12
58769;BME280;44536;47.474;19.056;2023-03-26T12:39:41;99610.78;;;18.63;40.22
58769;BME280;44536;47.474;19.056;2023-03-26T12:47:16;99594.28;;;17.70;38.78
58769;BME280;44536;47.474;19.056;2023-03-26T12:54:20;99584.56;;;22.68;30.87
58769;BME280;44536;47.474;19.056;2023-03-26T12:57:32;99565.41;;;19.96;30.37
58769;BME280;44536;47.474;19.056;2023-03-26T13:11:54;99554.22;;;17.31;35.81
58769;BME280;44536;47.474;19.056;2023-03-26T13:18:51;99531.25;;;17.36;34.21
58769;BME280;44536;47.474;19.056;2023-03-26T13:22:16;99532.22;;;17.96;33.53
58769;BME280;44536;47.474;19.056;2023-03-26T13:32:17;99501.66;;;18.77;32.23
58769;BME280;44536;47.474;19.056;2023-03-26T13:35:26;99503.63;;;19.81;31.47
58769;BME280;44536;47.474;19.056;2023-03-26T13:39:00;99504.87;;;19.51;31.50
58769;BME280;44536;47.474;19.056;2023-03-26T13:42:21;99493.25;;;19.23;31.96
58769;BME280;44536;47.474;19.056;2023-03-26T13:45:45;99490.28;;;18.24;32.10
58769;BME280;44536;47.474;19.056;2023-03-26T13:48:55;99493.44;;;17.83;33.58
58769;BME280;44536;47.474;19.056;2023-03-26T13:55:40;99483.44;;;17.77;33.00
58769;BME280;44536;47.474;19.056;2023-03-26T13:58:49;99480.47;;;17.58;33.58
58769;BME280;44536;47.474;19.056;2023-03-26T14:02:00;99465.22;;;17.73;32.56
58769;BME280;44536;47.474;19.056;2023-03-26T14:05:25;99456.16;;;17.74;31.61
58769;BME280;44536;47.474;19.056;2023-03-26T14:08:33;99447.22;;;17.96;32.41
58769;BME280;44536;47.474;19.056;2023-03-26T14:11:56;99435.47;;;18.33;31.28
58769;BME280;44536;47.474;19.056;2023-03-26T14:15:16;99425.59;;;18.55;32.14
58769;BME280;44536;47.474;19.056;2023-03-26T14:22:02;99417.94;;;19.16;29.84
58769;BME280;44536;47.474;19.056;2023-03-26T14:25:31;99428.28;;;18.70;30.74
58769;BME280;44536;47.474;19.056;2023-03-26T14:28:57;99419.56;;;18.32;31.12
58769;BME280;44536;47.474;19.056;2023-03-26T14:39:39;99420.00;;;17.99;30.20
58769;BME280;44536;47.474;19.056;2023-03-26T14:46:23;99406.03;;;18.04;30.51
58769;BME280;44536;47.474;19.056;2023-03-26T14:52:53;99395.88;;;17.40;27.79
58769;BME280;44536;47.474;19.056;2023-03-26T15:03:10;99390.75;;;17.16;29.84
58769;BME280;44536;47.474;19.056;2023-03-26T15:37:08;99328.09;;;16.50;33.75
58769;BME280;44536;47.474;19.056;2023-03-26T15:47:25;99322.31;;;16.15;34.80
58769;BME280;44536;47.474;19.056;2023-03-26T15:57:31;99315.91;;;16.02;34.59
58769;BME280;44536;47.474;19.056;2023-03-26T16:01:30;99310.16;;;15.82;35.49
58769;BME280;44536;47.474;19.056;2023-03-26T16:04:28;99309.19;;;15.75;35.63
58769;BME280;44536;47.474;19.056;2023-03-26T16:11:10;99285.97;;;15.44;36.82
58769;BME280;44536;47.474;19.056;2023-03-26T16:24:38;99258.62;;;14.87;37.43
58769;BME280;44536;47.474;19.056;2023-03-26T16:27:43;99252.31;;;14.80;37.37
58769;BME280;44536;47.474;19.056;2023-03-26T16:31:17;99246.66;;;14.67;37.72
58769;BME280;44536;47.474;19.056;2023-03-26T16:37:48;99243.22;;;14.42;39.13
58769;BME280;44536;47.474;19.056;2023-03-26T16:40:58;99242.69;;;14.22;39.37
58769;BME280;44536;47.474;19.056;2023-03-26T16:44:16;99249.69;;;14.07;40.24
58769;BME280;44536;47.474;19.056;2023-03-26T16:51:05;99250.16;;;13.78;41.74
58769;BME280;44536;47.474;19.056;2023-03-26T16:54:34;99252.47;;;13.65;41.16
58769;BME280;44536;47.474;19.056;2023-03-26T16:57:52;99252.91;;;13.52;41.30
58769;BME280;44536;47.474;19.056;2023-03-26T17:01:22;99249.91;;;13.39;42.07
58769;BME280;44536;47.474;19.056;2023-03-26T17:04:31;99249.03;;;13.30;42.24
58769;BME280;44536;47.474;19.056;2023-03-26T17:07:44;99250.94;;;13.12;42.87
58769;BME280;44536;47.474;19.056;2023-03-26T17:10:56;99248.94;;;13.14;42.99
58769;BME280;44536;47.474;19.056;2023-03-26T17:27:45;99255.22;;;12.97;44.08
58769;BME280;44536;47.474;19.056;2023-03-26T17:31:04;99256.16;;;12.87;44.92
58769;BME280;44536;47.474;19.056;2023-03-26T17:37:48;99260.13;;;12.83;44.83
58769;BME280;44536;47.474;19.056;2023-03-26T17:40:54;99260.28;;;12.82;45.39
58769;BME280;44536;47.474;19.056;2023-03-26T17:44:21;99249.84;;;12.88;45.18
58769;BME280;44536;47.474;19.056;2023-03-26T17:50:56;99251.19;;;12.92;45.05
58769;BME280;44536;47.474;19.056;2023-03-26T17:54:00;99245.03;;;12.92;44.88
58769;BME280;44536;47.474;19.056;2023-03-26T17:57:24;99247.50;;;12.85;47.68
58769;BME280;44536;47.474;19.056;2023-03-26T18:00:34;99253.28;;;12.81;45.27
58769;BME280;44536;47.474;19.056;2023-03-26T18:03:43;99246.81;;;12.83;45.75
58769;BME280;44536;47.474;19.056;2023-03-26T18:07:13;99241.34;;;12.85;45.65
58769;BME280;44536;47.474;19.056;2023-03-26T18:14:10;99252.34;;;12.90;45.04
58769;BME280;44536;47.474;19.056;2023-03-26T18:17:16;99245.03;;;12.92;45.58
58769;BME280;44536;47.474;19.056;2023-03-26T18:20:24;99241.91;;;12.97;46.69
58769;BME280;44536;47.474;19.056;2023-03-26T18:23:37;99243.41;;;12.99;46.00
58769;BME280;44536;47.474;19.056;2023-03-26T18:26:41;99239.87;;;13.24;44.39
58769;BME280;44536;47.474;19.056;2023-03-26T18:33:12;99240.22;;;12.96;46.01
58769;BME280;44536;47.474;19.056;2023-03-26T18:36:16;99233.72;;;12.90;45.73
58769;BME280;44536;47.474;19.056;2023-03-26T18:39:19;99232.41;;;12.94;45.35
58769;BME280;44536;47.474;19.056;2023-03-26T18:42:22;99224.75;;;12.91;46.06
58769;BME280;44536;47.474;19.056;2023-03-26T18:45:36;99218.44;;;12.92;45.19
58769;BME280;44536;47.474;19.056;2023-03-26T18:48:41;99211.44;;;12.91;46.37
58769;BME280;44536;47.474;19.056;2023-03-26T18:51:43;99211.91;;;12.86;45.03
58769;BME280;44536;47.474;19.056;2023-03-26T18:54:58;99206.06;;;12.83;44.94
58769;BME280;44536;47.474;19.056;2023-03-26T18:58:17;99201.22;;;12.78;46.14
58769;BME280;44536;47.474;19.056;2023-03-26T19:01:25;99188.25;;;12.75;45.89
58769;BME280;44536;47.474;19.056;2023-03-26T19:04:32;99185.06;;;12.72;45.32
58769;BME280;44536;47.474;19.056;2023-03-26T19:07:36;99179.56;;;12.65;45.81
58769;BME280;44536;47.474;19.056;2023-03-26T19:10:40;99177.22;;;12.62;45.71
58769;BME280;44536;47.474;19.056;2023-03-26T19:13:43;99175.69;;;12.59;46.51
58769;BME280;44536;47.474;19.056;2023-03-26T19:16:59;99173.72;;;12.62;46.29
58769;BME280;44536;47.474;19.056;2023-03-26T19:20:03;99166.06;;;12.58;46.68
58769;BME280;44536;47.474;19.056;2023-03-26T19:23:23;99169.75;;;12.66;46.21
58769;BME280;44536;47.474;19.056;2023-03-26T19:26:27;99170.34;;;12.85;45.53
58769;BME280;44536;47.474;19.056;2023-03-26T19:29:32;99159.47;;;12.71;46.04
58769;BME280;44536;47.474;19.056;2023-03-26T19:32:36;99159.03;;;12.49;48.36
58769;BME280;44536;47.474;19.056;2023-03-26T19:35:39;99155.00;;;12.37;49.16
58769;BME280;44536;47.474;19.056;2023-03-26T19:38:49;99151.03;;;12.41;48.49
58769;BME280;44536;47.474;19.056;2023-03-26T19:41:53;99142.22;;;12.49;47.72
58769;BME280;44536;47.474;19.056;2023-03-26T19:44:58;99128.94;;;12.41;48.67
58769;BME280;44536;47.474;19.056;2023-03-26T19:48:05;99123.25;;;12.36;49.82
58769;BME280;44536;47.474;19.056;2023-03-26T19:51:37;99119.19;;;12.23;49.38
58769;BME280;44536;47.474;19.056;2023-03-26T19:54:44;99109.16;;;12.43;48.50
58769;BME280;44536;47.474;19.056;2023-03-26T19:58:02;99109.28;;;12.34;49.94
58769;BME280;44536;47.474;19.056;2023-03-26T20:01:05;99093.97;;;12.27;49.34
58769;BME280;44536;47.474;19.056;2023-03-26T20:04:13;99089.75;;;12.17;49.70
58769;BME280;44536;47.474;19.056;2023-03-26T20:07:21;99086.72;;;12.12;49.03
58769;BME280;44536;47.474;19.056;2023-03-26T20:10:37;99080.41;;;12.13;49.37
58769;BME280;44536;47.474;19.056;2023-03-26T20:13:39;99066.94;;;12.06;49.50
58769;BME280;44536;47.474;19.056;2023-03-26T20:16:42;99065.41;;;12.04;49.70
58769;BME280;44536;47.474;19.056;2023-03-26T20:19:46;99057.19;;;12.15;49.43
58769;BME280;44536;47.474;19.056;2023-03-26T20:22:51;99055.25;;;11.99;50.48
58769;BME280;44536;47.474;19.056;2023-03-26T20:25:54;99040.53;;;12.05;50.04
58769;BME280;44536;47.474;19.056;2023-03-26T20:28:58;99039.69;;;12.04;51.87
58769;BME280;44536;47.474;19.056;2023-03-26T20:32:01;99031.56;;;12.06;49.52
58769;BME280;44536;47.474;19.056;2023-03-26T20:35:21;99029.19;;;11.95;50.13
58769;BME280;44536;47.474;19.056;2023-03-26T20:38:41;99025.81;;;11.84;51.90
58769;BME280;44536;47.474;19.056;2023-03-26T20:41:46;99029.53;;;11.74;52.39
58769;BME280;44536;47.474;19.056;2023-03-26T20:44:49;99015.69;;;11.62;52.48
58769;BME280;44536;47.474;19.056;2023-03-26T20:47:52;99009.69;;;11.60;53.38
58769;BME280;44536;47.474;19.056;2023-03-26T20:50:55;99013.81;;;11.54;54.06
58769;BME280;44536;47.474;19.056;2023-03-26T20:53:58;99011.97;;;11.55;52.47
58769;BME280;44536;47.474;19.056;2023-03-26T20:57:01;99006.22;;;11.59;52.16
58769;BME280;44536;47.474;19.056;2023-03-26T21:00:05;99013.19;;;11.60;52.58
58769;BME280;44536;47.474;19.056;2023-03-26T21:03:18;99007.88;;;11.60;53.50
58769;BME280;44536;47.474;19.056;2023-03-26T21:06:20;99007.56;;;11.64;54.45
58769;BME280;44536;47.474;19.056;2023-03-26T21:09:23;98993.25;;;11.56;52.85
58769;BME280;44536;47.474;19.056;2023-03-26T21:12:29;98987.78;;;11.58;52.58
58769;BME280;44536;47.474;19.056;2023-03-26T21:15:34;98987.31;;;11.63;52.76
58769;BME280;44536;47.474;19.056;2023-03-26T21:18:37;98984.66;;;11.63;53.05
58769;BME280;44536;47.474;19.056;2023-03-26T21:22:06;98985.66;;;11.61;52.92
58769;BME280;44536;47.474;19.056;2023-03-26T21:28:44;98991.25;;;11.58;53.94
58769;BME280;44536;47.474;19.056;2023-03-26T21:31:48;99007.88;;;11.60;55.73